• Join FlightAware (Why Join?)
  • Login
  • US Flag 
03:34AM EDT


 

Airport Tracker/Info


-or-


 

Live Flight TrackerFlight Track Log ✈ EGF3240 ✈ 27-Feb-2014 ✈ KORD - KOMA

Flight Track Log - Related Links

Times and Time Zones

All times are in EST time to prevent confusion due to time zone crossing. See the EGF3240 flight status page for this flight to view local times or setup timezone preferences in your user account.

Time Position Orientation Groundspeed Altitude Reporting Facility
EST Latitude Longitude Course Direction KTS MPH feet Rate Location/Type
04:50PM 41.9833 -87.9500 264° West 158 182 1,800  Level Chicago TRACON
04:51PM 41.9833 -88.0167 270° West 214 246 4,100 1,680 Climbing Chicago TRACON
04:52PM 41.9500 -88.2409 270° West  Level FlightAware Approximate
04:52PM 41.9833 -88.1167 270° West 241 277 5,200  Level Chicago TRACON
04:52PM 41.9803 -88.1700 266° West 242 278 6,700 1,320 Climbing Chicago Center
04:53PM 41.9412 -88.3546 262° West  Level FlightAware Approximate
04:53PM 41.9742 -88.2617 265° West 247 284 7,400  Level Chicago Center
04:54PM 41.9307 -88.4681 264° West  Level FlightAware Approximate
04:54PM 41.9656 -88.3592 263° West 246 283 9,900  Level Chicago Center
04:55PM 41.9220 -88.5819 264° West  Level FlightAware Approximate
04:56PM 41.9536 -88.4508 260° West 250 288 12,500  Level Chicago Center
04:57PM 41.9442 -88.5472 263° West 245 282 15,000 1,860 Climbing Chicago Center
04:58PM 41.9381 -88.6394 265° West 250 288 16,400 1,320 Climbing Chicago Center
04:59PM 41.9308 -88.7497 265° West 276 318 17,800 1,080 Climbing Chicago Center
05:00PM 41.9247 -88.8533 266° West 282 325 18,700 1,020 Climbing Chicago Center
05:01PM 41.9164 -88.9642 264° West 293 337 20,000 1,200 Climbing Chicago Center
05:02PM 41.9092 -89.0808 265° West 307 353 21,200 1,140 Climbing Chicago Center
05:03PM 41.9003 -89.1989 264° West 317 365 22,400 1,260 Climbing Chicago Center
05:04PM 41.8867 -89.3444 263° West 327 376 23,900 1,260 Climbing Chicago Center
05:05PM 41.8758 -89.4644 263° West 327 376 25,100 1,140 Climbing Chicago Center
05:06PM 41.8633 -89.5819 262° West 323 372 26,300 1,200 Climbing Chicago Center
05:07PM 41.8511 -89.7008 262° West 323 372 27,600 1,200 Climbing Chicago Center
05:08PM 41.8411 -89.8178 263° West 319 367 28,800 1,200 Climbing Chicago Center
05:09PM 41.8311 -89.9556 264° West 321 369 30,200 1,200 Climbing Chicago Center
05:10PM 41.8222 -90.0728 264° West 319 367 31,400 1,140 Climbing Chicago Center
05:11PM 41.8108 -90.1919 263° West 322 371 32,600 1,140 Climbing Chicago Center
05:12PM 41.7961 -90.3228 261° West 343 395 33,800 660 Climbing Chicago Center
05:13PM 41.7842 -90.4483 263° West 343 395 34,000 60 Climbing Chicago Center
05:14PM 41.7711 -90.5797 262° West 353 406 34,000  Level Chicago Center
05:15PM 41.7561 -90.7369 263° West 366 421 34,000  Level Chicago Center
05:16PM 41.7425 -90.8731 262° West 369 425 34,000  Level Chicago Center
05:17PM 41.7297 -91.0103 263° West 371 427 34,000  Level Chicago Center
05:18PM 41.7156 -91.1458 262° West 370 426 34,000  Level Chicago Center
05:19PM 41.7025 -91.2817 263° West 369 425 34,000  Level Chicago Center
05:20PM 41.6853 -91.4450 262° West 371 427 34,000  Level Chicago Center
05:21PM 41.6717 -91.5822 262° West 373 429 34,000  Level Chicago Center
05:22PM 41.6575 -91.7200 262° West 374 430 34,000  Level Chicago Center
05:23PM 41.6419 -91.8567 261° West 374 430 34,000  Level Chicago Center
05:25PM 41.6347 -91.9947 266° West 374 430 34,000  Level Chicago Center
05:26PM 41.6303 -92.1589 268° West 371 427 34,000  Level Chicago Center
05:27PM 41.6264 -92.2969 268° West 372 428 34,000  Level Chicago Center
05:28PM 41.6225 -92.4311 268° West 367 422 34,000  Level Chicago Center
05:29PM 41.6197 -92.5692 269° West 369 425 34,000  Level Chicago Center
05:30PM 41.6156 -92.6864 267° West 370 426 34,000  Level Minneapolis Center
05:31PM 41.6097 -92.8217 267° West 370 426 34,000  Level Minneapolis Center
05:32PM 41.6047 -92.9858 268° West 370 426 34,000  Level Minneapolis Center
05:33PM 41.6006 -93.1217 268° West 371 427 34,000  Level Minneapolis Center
05:34PM 41.5958 -93.2583 267° West 371 427 34,000  Level Minneapolis Center
05:35PM 41.5908 -93.3953 267° West 371 427 34,000  Level Minneapolis Center
05:36PM 41.5842 -93.5322 266° West 371 427 34,000 -360 Level Minneapolis Center
05:37PM 41.5789 -93.6967 268° West 371 427 33,300 -1,080 Descending Minneapolis Center
05:38PM 41.5725 -93.8322 266° West 371 427 31,800 -1,500 Descending Minneapolis Center
05:39PM 41.5667 -93.9633 267° West 362 417 30,300 -1,500 Descending Minneapolis Center
05:40PM 41.5611 -94.0981 267° West 362 417 28,700 -1,680 Descending Minneapolis Center
05:41PM 41.5542 -94.2572 267° West 376 433 26,900 -1,860 Descending Minneapolis Center
05:42PM 41.5478 -94.4017 267° West 386 444 24,900 -1,980 Descending Minneapolis Center
05:43PM 41.5414 -94.5447 267° West 388 447 22,900 -2,040 Descending Minneapolis Center
05:44PM 41.5358 -94.6825 267° West 377 434 20,800 -2,040 Descending Minneapolis Center
05:45PM 41.5283 -94.8158 266° West 367 422 18,800 -1,920 Descending Minneapolis Center
05:46PM 41.5361 -94.9414 275° West 349 402 17,400 -1,500 Descending Minneapolis Center
05:46PM 41.5211 -94.9461 193° South 358 412 17,300 -1,320 Descending Minneapolis Center
05:47PM 41.5253 -95.1072 272° West 342 394 15,700 -1,800 Descending Minneapolis Center
05:48PM 41.4961 -95.2192 251° West 340 391 13,700 -1,920 Descending Minneapolis Center
05:48PM 41.5044 -95.2269 325° Northwest 330 380 13,800 -2,100 Climbing Minneapolis Center
05:49PM 41.4725 -95.3369 249° West 282 325 11,600 -2,100 Descending Minneapolis Center
05:49PM 41.4669 -95.3233 119° Southeast 320 368 11,700 -1,620 Climbing Minneapolis Center
05:50PM 41.4456 -95.4264 255° West 249 287 10,000 -1,560 Descending Minneapolis Center
05:50PM 41.4403 -95.4153 122° Southeast 292 336 10,100 -1,980 Climbing Minneapolis Center
05:51PM 41.4175 -95.4956 249° West 257 296 7,900 -2,340 Descending Minneapolis Center
05:51PM 41.4200 -95.5131 281° West 230 265 7,600 -2,040 Descending Minneapolis Center
05:52PM 41.3956 -95.5797 244° Southwest 245 282 5,800 -2,100 Descending Minneapolis Center
05:52PM 41.3994 -95.6072 281° West 247 284 5,500 -900 Descending Minneapolis Center
05:53PM 41.4092 -95.6692 282° West 248 285 4,900 -780 Descending Minneapolis Center
05:54PM 41.4319 -95.7719 286° West 245 282 4,000 -540 Descending Minneapolis Center
05:55PM 41.4450 -95.8519 282° West 236 272 4,000  Level Minneapolis Center
05:55PM 41.4414 -95.8550 212° Southwest 244 281 4,000 -600 Level Minneapolis Center
05:56PM 41.4292 -95.9261 257° West 201 231 3,400 -780 Descending Minneapolis Center
05:56PM 41.4250 -95.9281 199° South 226 260 3,200 -540 Descending Minneapolis Center
05:57PM 41.3947 -95.9775 231° Southwest 173 199 2,900 -420 Descending Minneapolis Center
05:57PM 41.3894 -95.9728 146° Southeast 197 227 2,800 -600 Descending Minneapolis Center
05:58PM 41.3644 -95.9614 161° South 122 140 2,400 -600 Descending Minneapolis Center
05:58PM 41.3569 -95.9483 127° Southeast 155 178 2,200 -780 Descending Minneapolis Center
05:59PM 41.3264 -95.9242 149° Southeast 128 147 1,400 -780 Descending Minneapolis Center
05:59PM 41.3272 -95.9183 79° East 141 162 1,400 -360 Level Minneapolis Center
06:01PM 41.2942 -95.8856 143° Southeast 136 157 1,000 -420 Descending Minneapolis Center